sensor_id;sensor_type;location;lat;lon;timestamp;P1;durP1;ratioP1;P2;durP2;ratioP2
14373;SDS011;7270;49.004;12.066;2023-07-20T00:01:18;1.50;;;1.40;;
14373;SDS011;7270;49.004;12.066;2023-07-20T00:03:44;1.60;;;1.50;;
14373;SDS011;7270;49.004;12.066;2023-07-20T00:06:19;1.60;;;1.50;;
14373;SDS011;7270;49.004;12.066;2023-07-20T00:08:46;1.50;;;1.40;;
14373;SDS011;7270;49.004;12.066;2023-07-20T00:11:13;1.50;;;1.40;;
14373;SDS011;7270;49.004;12.066;2023-07-20T00:13:39;1.30;;;1.20;;
14373;SDS011;7270;49.004;12.066;2023-07-20T00:16:06;1.40;;;1.30;;
14373;SDS011;7270;49.004;12.066;2023-07-20T00:18:32;1.20;;;1.20;;
14373;SDS011;7270;49.004;12.066;2023-07-20T00:20:59;1.40;;;1.30;;
14373;SDS011;7270;49.004;12.066;2023-07-20T00:23:26;1.40;;;1.30;;
14373;SDS011;7270;49.004;12.066;2023-07-20T00:25:53;1.30;;;1.20;;
14373;SDS011;7270;49.004;12.066;2023-07-20T00:28:20;1.40;;;1.30;;
14373;SDS011;7270;49.004;12.066;2023-07-20T00:30:47;1.83;;;1.73;;
14373;SDS011;7270;49.004;12.066;2023-07-20T00:33:16;1.20;;;1.20;;
14373;SDS011;7270;49.004;12.066;2023-07-20T00:35:42;1.40;;;1.30;;
14373;SDS011;7270;49.004;12.066;2023-07-20T00:38:08;1.10;;;1.10;;
14373;SDS011;7270;49.004;12.066;2023-07-20T00:40:35;1.27;;;1.20;;
14373;SDS011;7270;49.004;12.066;2023-07-20T00:43:02;1.40;;;1.30;;
14373;SDS011;7270;49.004;12.066;2023-07-20T00:45:29;1.27;;;1.27;;
14373;SDS011;7270;49.004;12.066;2023-07-20T00:47:56;1.40;;;1.30;;
14373;SDS011;7270;49.004;12.066;2023-07-20T00:50:23;1.40;;;1.30;;
14373;SDS011;7270;49.004;12.066;2023-07-20T00:52:50;1.30;;;1.20;;
14373;SDS011;7270;49.004;12.066;2023-07-20T00:55:16;1.40;;;1.30;;
14373;SDS011;7270;49.004;12.066;2023-07-20T00:57:43;1.20;;;1.20;;
14373;SDS011;7270;49.004;12.066;2023-07-20T01:00:10;1.30;;;1.20;;
14373;SDS011;7270;49.004;12.066;2023-07-20T01:02:38;1.20;;;1.20;;
14373;SDS011;7270;49.004;12.066;2023-07-20T01:05:04;1.20;;;1.20;;
14373;SDS011;7270;49.004;12.066;2023-07-20T01:07:32;1.40;;;1.30;;
14373;SDS011;7270;49.004;12.066;2023-07-20T01:10:01;1.20;;;1.20;;
14373;SDS011;7270;49.004;12.066;2023-07-20T01:12:30;1.20;;;1.20;;
14373;SDS011;7270;49.004;12.066;2023-07-20T01:14:58;1.27;;;1.20;;
14373;SDS011;7270;49.004;12.066;2023-07-20T01:17:24;1.40;;;1.30;;
14373;SDS011;7270;49.004;12.066;2023-07-20T01:19:52;1.30;;;1.20;;
14373;SDS011;7270;49.004;12.066;2023-07-20T01:22:21;1.57;;;1.47;;
14373;SDS011;7270;49.004;12.066;2023-07-20T01:27:45;1.40;;;1.30;;
14373;SDS011;7270;49.004;12.066;2023-07-20T01:30:16;1.30;;;1.20;;
14373;SDS011;7270;49.004;12.066;2023-07-20T01:32:46;1.20;;;1.20;;
14373;SDS011;7270;49.004;12.066;2023-07-20T01:35:13;1.20;;;1.20;;
14373;SDS011;7270;49.004;12.066;2023-07-20T01:37:40;1.10;;;1.10;;
14373;SDS011;7270;49.004;12.066;2023-07-20T01:40:07;1.20;;;1.20;;
14373;SDS011;7270;49.004;12.066;2023-07-20T01:42:34;1.40;;;1.30;;
14373;SDS011;7270;49.004;12.066;2023-07-20T01:45:01;1.30;;;1.20;;
14373;SDS011;7270;49.004;12.066;2023-07-20T01:47:27;1.40;;;1.30;;
14373;SDS011;7270;49.004;12.066;2023-07-20T01:49:54;1.40;;;1.30;;
14373;SDS011;7270;49.004;12.066;2023-07-20T01:52:21;1.30;;;1.20;;
14373;SDS011;7270;49.004;12.066;2023-07-20T01:54:47;1.50;;;1.40;;
14373;SDS011;7270;49.004;12.066;2023-07-20T01:57:13;1.50;;;1.40;;
14373;SDS011;7270;49.004;12.066;2023-07-20T01:59:40;1.37;;;1.27;;
14373;SDS011;7270;49.004;12.066;2023-07-20T02:02:06;1.40;;;1.30;;
14373;SDS011;7270;49.004;12.066;2023-07-20T02:04:33;1.43;;;1.33;;
14373;SDS011;7270;49.004;12.066;2023-07-20T02:07:00;1.30;;;1.20;;
14373;SDS011;7270;49.004;12.066;2023-07-20T02:09:27;1.27;;;1.23;;
14373;SDS011;7270;49.004;12.066;2023-07-20T02:11:53;1.10;;;1.10;;
14373;SDS011;7270;49.004;12.066;2023-07-20T02:14:19;1.30;;;1.20;;
14373;SDS011;7270;49.004;12.066;2023-07-20T02:16:47;1.20;;;1.20;;
14373;SDS011;7270;49.004;12.066;2023-07-20T02:19:17;1.30;;;1.20;;
14373;SDS011;7270;49.004;12.066;2023-07-20T02:21:43;1.30;;;1.20;;
14373;SDS011;7270;49.004;12.066;2023-07-20T02:24:11;1.20;;;1.20;;
14373;SDS011;7270;49.004;12.066;2023-07-20T02:26:37;1.40;;;1.30;;
14373;SDS011;7270;49.004;12.066;2023-07-20T02:29:04;1.23;;;1.20;;
14373;SDS011;7270;49.004;12.066;2023-07-20T02:31:30;1.27;;;1.20;;
14373;SDS011;7270;49.004;12.066;2023-07-20T02:33:57;1.20;;;1.20;;
14373;SDS011;7270;49.004;12.066;2023-07-20T02:36:23;1.20;;;1.20;;
14373;SDS011;7270;49.004;12.066;2023-07-20T02:38:49;1.40;;;1.30;;
14373;SDS011;7270;49.004;12.066;2023-07-20T02:41:17;1.40;;;1.30;;
14373;SDS011;7270;49.004;12.066;2023-07-20T02:43:43;1.20;;;1.20;;
14373;SDS011;7270;49.004;12.066;2023-07-20T02:46:09;1.40;;;1.30;;
14373;SDS011;7270;49.004;12.066;2023-07-20T02:48:36;1.40;;;1.30;;
14373;SDS011;7270;49.004;12.066;2023-07-20T02:51:02;1.40;;;1.30;;
14373;SDS011;7270;49.004;12.066;2023-07-20T02:53:28;1.20;;;1.20;;
14373;SDS011;7270;49.004;12.066;2023-07-20T02:55:55;1.30;;;1.20;;
14373;SDS011;7270;49.004;12.066;2023-07-20T02:58:22;1.30;;;1.20;;
14373;SDS011;7270;49.004;12.066;2023-07-20T03:00:48;1.30;;;1.20;;
14373;SDS011;7270;49.004;12.066;2023-07-20T03:03:15;1.50;;;1.40;;
14373;SDS011;7270;49.004;12.066;2023-07-20T03:05:41;1.33;;;1.30;;
14373;SDS011;7270;49.004;12.066;2023-07-20T03:08:08;1.40;;;1.30;;
14373;SDS011;7270;49.004;12.066;2023-07-20T03:10:38;1.37;;;1.27;;
14373;SDS011;7270;49.004;12.066;2023-07-20T03:13:07;1.43;;;1.33;;
14373;SDS011;7270;49.004;12.066;2023-07-20T03:15:35;1.50;;;1.40;;
14373;SDS011;7270;49.004;12.066;2023-07-20T03:18:01;1.40;;;1.30;;
14373;SDS011;7270;49.004;12.066;2023-07-20T03:20:27;1.33;;;1.23;;
14373;SDS011;7270;49.004;12.066;2023-07-20T03:22:54;1.50;;;1.40;;
14373;SDS011;7270;49.004;12.066;2023-07-20T03:25:20;1.10;;;1.10;;
14373;SDS011;7270;49.004;12.066;2023-07-20T03:27:53;1.30;;;1.20;;
14373;SDS011;7270;49.004;12.066;2023-07-20T03:30:19;1.40;;;1.30;;
14373;SDS011;7270;49.004;12.066;2023-07-20T03:32:47;1.20;;;1.20;;
14373;SDS011;7270;49.004;12.066;2023-07-20T03:35:13;1.30;;;1.20;;
14373;SDS011;7270;49.004;12.066;2023-07-20T03:37:40;1.40;;;1.30;;
14373;SDS011;7270;49.004;12.066;2023-07-20T03:40:07;1.30;;;1.20;;
14373;SDS011;7270;49.004;12.066;2023-07-20T03:42:34;1.40;;;1.30;;
14373;SDS011;7270;49.004;12.066;2023-07-20T03:45:01;1.30;;;1.20;;
14373;SDS011;7270;49.004;12.066;2023-07-20T03:47:27;1.40;;;1.30;;
14373;SDS011;7270;49.004;12.066;2023-07-20T03:49:55;1.40;;;1.30;;
14373;SDS011;7270;49.004;12.066;2023-07-20T03:52:21;1.20;;;1.20;;
14373;SDS011;7270;49.004;12.066;2023-07-20T03:54:48;1.50;;;1.40;;
14373;SDS011;7270;49.004;12.066;2023-07-20T03:57:16;1.40;;;1.30;;
14373;SDS011;7270;49.004;12.066;2023-07-20T03:59:44;1.30;;;1.20;;
14373;SDS011;7270;49.004;12.066;2023-07-20T04:02:13;1.40;;;1.30;;
14373;SDS011;7270;49.004;12.066;2023-07-20T04:04:39;1.40;;;1.30;;
14373;SDS011;7270;49.004;12.066;2023-07-20T04:07:07;1.50;;;1.40;;
14373;SDS011;7270;49.004;12.066;2023-07-20T04:09:33;1.40;;;1.30;;
14373;SDS011;7270;49.004;12.066;2023-07-20T04:12:00;1.40;;;1.30;;
14373;SDS011;7270;49.004;12.066;2023-07-20T04:14:26;1.37;;;1.30;;
14373;SDS011;7270;49.004;12.066;2023-07-20T04:16:52;1.40;;;1.30;;
14373;SDS011;7270;49.004;12.066;2023-07-20T04:19:18;1.40;;;1.30;;
14373;SDS011;7270;49.004;12.066;2023-07-20T04:21:46;1.50;;;1.40;;
14373;SDS011;7270;49.004;12.066;2023-07-20T04:24:14;1.50;;;1.40;;
14373;SDS011;7270;49.004;12.066;2023-07-20T04:26:40;1.70;;;1.60;;
14373;SDS011;7270;49.004;12.066;2023-07-20T04:29:06;1.53;;;1.43;;
14373;SDS011;7270;49.004;12.066;2023-07-20T04:31:33;1.50;;;1.40;;
14373;SDS011;7270;49.004;12.066;2023-07-20T04:33:59;1.50;;;1.40;;
14373;SDS011;7270;49.004;12.066;2023-07-20T04:36:25;1.50;;;1.40;;
14373;SDS011;7270;49.004;12.066;2023-07-20T04:38:52;1.50;;;1.40;;
14373;SDS011;7270;49.004;12.066;2023-07-20T04:41:19;1.40;;;1.40;;
14373;SDS011;7270;49.004;12.066;2023-07-20T04:43:46;1.40;;;1.30;;
14373;SDS011;7270;49.004;12.066;2023-07-20T04:46:12;1.27;;;1.20;;
14373;SDS011;7270;49.004;12.066;2023-07-20T04:48:38;1.20;;;1.20;;
14373;SDS011;7270;49.004;12.066;2023-07-20T04:51:06;1.40;;;1.30;;
14373;SDS011;7270;49.004;12.066;2023-07-20T04:53:33;1.40;;;1.30;;
14373;SDS011;7270;49.004;12.066;2023-07-20T04:55:59;1.27;;;1.23;;
14373;SDS011;7270;49.004;12.066;2023-07-20T04:58:26;1.50;;;1.40;;
14373;SDS011;7270;49.004;12.066;2023-07-20T05:00:53;1.40;;;1.30;;
14373;SDS011;7270;49.004;12.066;2023-07-20T05:03:19;1.50;;;1.40;;
14373;SDS011;7270;49.004;12.066;2023-07-20T05:05:46;1.40;;;1.30;;
14373;SDS011;7270;49.004;12.066;2023-07-20T05:08:13;1.50;;;1.40;;
14373;SDS011;7270;49.004;12.066;2023-07-20T05:10:39;1.50;;;1.40;;
14373;SDS011;7270;49.004;12.066;2023-07-20T05:13:05;1.20;;;1.20;;
14373;SDS011;7270;49.004;12.066;2023-07-20T05:15:33;1.40;;;1.30;;
14373;SDS011;7270;49.004;12.066;2023-07-20T05:18:00;1.50;;;1.40;;
14373;SDS011;7270;49.004;12.066;2023-07-20T05:20:26;1.50;;;1.40;;
14373;SDS011;7270;49.004;12.066;2023-07-20T05:22:53;1.50;;;1.40;;
14373;SDS011;7270;49.004;12.066;2023-07-20T05:25:19;1.50;;;1.40;;
14373;SDS011;7270;49.004;12.066;2023-07-20T05:27:47;1.00;;;1.00;;
14373;SDS011;7270;49.004;12.066;2023-07-20T05:30:14;1.10;;;1.10;;
14373;SDS011;7270;49.004;12.066;2023-07-20T05:32:41;1.10;;;1.10;;
14373;SDS011;7270;49.004;12.066;2023-07-20T05:35:10;1.10;;;1.10;;
14373;SDS011;7270;49.004;12.066;2023-07-20T05:37:37;1.00;;;1.00;;
14373;SDS011;7270;49.004;12.066;2023-07-20T05:40:04;1.13;;;1.13;;
14373;SDS011;7270;49.004;12.066;2023-07-20T05:42:30;1.10;;;1.10;;
14373;SDS011;7270;49.004;12.066;2023-07-20T05:44:56;1.10;;;1.10;;
14373;SDS011;7270;49.004;12.066;2023-07-20T05:47:23;1.10;;;1.10;;
14373;SDS011;7270;49.004;12.066;2023-07-20T05:49:50;1.10;;;1.10;;
14373;SDS011;7270;49.004;12.066;2023-07-20T05:52:17;1.10;;;1.10;;
14373;SDS011;7270;49.004;12.066;2023-07-20T05:54:43;1.00;;;1.00;;
14373;SDS011;7270;49.004;12.066;2023-07-20T05:57:20;1.00;;;1.00;;
14373;SDS011;7270;49.004;12.066;2023-07-20T05:59:46;1.00;;;1.00;;
14373;SDS011;7270;49.004;12.066;2023-07-20T06:02:13;1.10;;;1.10;;
14373;SDS011;7270;49.004;12.066;2023-07-20T06:04:39;1.10;;;1.10;;
14373;SDS011;7270;49.004;12.066;2023-07-20T06:07:07;1.00;;;1.00;;
14373;SDS011;7270;49.004;12.066;2023-07-20T06:09:33;1.20;;;1.20;;
14373;SDS011;7270;49.004;12.066;2023-07-20T06:12:00;1.10;;;1.10;;
14373;SDS011;7270;49.004;12.066;2023-07-20T06:14:26;1.10;;;1.10;;
14373;SDS011;7270;49.004;12.066;2023-07-20T06:16:52;1.10;;;1.10;;
14373;SDS011;7270;49.004;12.066;2023-07-20T06:19:19;1.10;;;1.10;;
14373;SDS011;7270;49.004;12.066;2023-07-20T06:21:47;1.10;;;1.10;;
14373;SDS011;7270;49.004;12.066;2023-07-20T06:24:15;1.20;;;1.20;;
14373;SDS011;7270;49.004;12.066;2023-07-20T06:26:42;1.10;;;1.10;;
14373;SDS011;7270;49.004;12.066;2023-07-20T06:29:08;1.20;;;1.20;;
14373;SDS011;7270;49.004;12.066;2023-07-20T06:31:35;1.20;;;1.20;;
14373;SDS011;7270;49.004;12.066;2023-07-20T06:34:01;1.10;;;1.10;;
14373;SDS011;7270;49.004;12.066;2023-07-20T06:36:28;1.10;;;1.10;;
14373;SDS011;7270;49.004;12.066;2023-07-20T06:38:54;1.20;;;1.20;;
14373;SDS011;7270;49.004;12.066;2023-07-20T06:41:22;1.10;;;1.10;;
14373;SDS011;7270;49.004;12.066;2023-07-20T06:43:48;1.10;;;1.10;;
14373;SDS011;7270;49.004;12.066;2023-07-20T06:46:15;1.00;;;1.00;;
14373;SDS011;7270;49.004;12.066;2023-07-20T06:48:41;1.07;;;1.07;;
14373;SDS011;7270;49.004;12.066;2023-07-20T06:51:07;1.10;;;1.10;;
14373;SDS011;7270;49.004;12.066;2023-07-20T06:53:34;1.20;;;1.20;;
14373;SDS011;7270;49.004;12.066;2023-07-20T06:56:00;1.10;;;1.10;;
14373;SDS011;7270;49.004;12.066;2023-07-20T06:58:28;1.20;;;1.20;;
14373;SDS011;7270;49.004;12.066;2023-07-20T07:00:54;395.67;;;279.27;;
14373;SDS011;7270;49.004;12.066;2023-07-20T07:03:21;430.17;;;269.87;;
14373;SDS011;7270;49.004;12.066;2023-07-20T07:05:47;472.60;;;295.17;;
14373;SDS011;7270;49.004;12.066;2023-07-20T07:08:13;484.17;;;325.03;;
14373;SDS011;7270;49.004;12.066;2023-07-20T07:10:40;374.70;;;323.87;;
14373;SDS011;7270;49.004;12.066;2023-07-20T07:13:06;1.80;;;1.70;;
14373;SDS011;7270;49.004;12.066;2023-07-20T07:18:02;1.60;;;1.50;;
14373;SDS011;7270;49.004;12.066;2023-07-20T07:20:28;1.90;;;1.80;;
14373;SDS011;7270;49.004;12.066;2023-07-20T07:22:54;1.90;;;1.80;;
14373;SDS011;7270;49.004;12.066;2023-07-20T07:25:22;1.77;;;1.67;;
14373;SDS011;7270;49.004;12.066;2023-07-20T07:27:48;1.90;;;1.80;;
14373;SDS011;7270;49.004;12.066;2023-07-20T07:30:14;1.80;;;1.70;;
14373;SDS011;7270;49.004;12.066;2023-07-20T07:32:41;1.97;;;1.87;;
14373;SDS011;7270;49.004;12.066;2023-07-20T07:35:09;1.60;;;1.50;;
14373;SDS011;7270;49.004;12.066;2023-07-20T07:37:35;1.60;;;1.50;;
14373;SDS011;7270;49.004;12.066;2023-07-20T07:40:02;1.53;;;1.43;;
14373;SDS011;7270;49.004;12.066;2023-07-20T07:42:28;1.50;;;1.40;;
14373;SDS011;7270;49.004;12.066;2023-07-20T07:44:55;1.53;;;1.43;;
14373;SDS011;7270;49.004;12.066;2023-07-20T07:47:21;1.90;;;1.80;;
14373;SDS011;7270;49.004;12.066;2023-07-20T07:49:47;1.90;;;1.80;;
14373;SDS011;7270;49.004;12.066;2023-07-20T07:52:16;1.90;;;1.80;;
14373;SDS011;7270;49.004;12.066;2023-07-20T07:54:42;2.10;;;2.00;;
14373;SDS011;7270;49.004;12.066;2023-07-20T07:57:08;2.10;;;2.00;;
14373;SDS011;7270;49.004;12.066;2023-07-20T07:59:34;2.30;;;2.20;;
14373;SDS011;7270;49.004;12.066;2023-07-20T08:02:03;2.03;;;1.93;;
14373;SDS011;7270;49.004;12.066;2023-07-20T08:04:30;2.20;;;2.10;;
14373;SDS011;7270;49.004;12.066;2023-07-20T08:06:56;2.80;;;2.70;;
14373;SDS011;7270;49.004;12.066;2023-07-20T08:09:25;601.37;;;538.20;;
14373;SDS011;7270;49.004;12.066;2023-07-20T08:11:51;627.23;;;563.40;;
14373;SDS011;7270;49.004;12.066;2023-07-20T08:14:18;6.47;;;6.17;;
14373;SDS011;7270;49.004;12.066;2023-07-20T08:16:44;2.50;;;2.40;;
14373;SDS011;7270;49.004;12.066;2023-07-20T08:19:10;2.10;;;2.00;;
14373;SDS011;7270;49.004;12.066;2023-07-20T08:21:37;1.73;;;1.63;;
14373;SDS011;7270;49.004;12.066;2023-07-20T08:24:03;2.00;;;1.90;;
14373;SDS011;7270;49.004;12.066;2023-07-20T08:26:31;2.20;;;2.10;;
14373;SDS011;7270;49.004;12.066;2023-07-20T08:28:57;2.53;;;2.43;;
14373;SDS011;7270;49.004;12.066;2023-07-20T08:31:24;3.13;;;3.03;;
14373;SDS011;7270;49.004;12.066;2023-07-20T08:33:53;4.87;;;4.63;;
14373;SDS011;7270;49.004;12.066;2023-07-20T08:36:21;6.20;;;5.90;;
14373;SDS011;7270;49.004;12.066;2023-07-20T08:38:48;5.10;;;4.90;;
14373;SDS011;7270;49.004;12.066;2023-07-20T08:41:14;10.43;;;9.93;;
14373;SDS011;7270;49.004;12.066;2023-07-20T08:43:42;14.53;;;13.87;;
14373;SDS011;7270;49.004;12.066;2023-07-20T08:46:08;98.57;;;94.17;;
14373;SDS011;7270;49.004;12.066;2023-07-20T08:48:36;448.90;;;420.93;;
14373;SDS011;7270;49.004;12.066;2023-07-20T08:51:03;14.67;;;13.97;;
14373;SDS011;7270;49.004;12.066;2023-07-20T08:53:30;31.77;;;30.27;;
14373;SDS011;7270;49.004;12.066;2023-07-20T08:55:57;9.30;;;8.83;;
14373;SDS011;7270;49.004;12.066;2023-07-20T08:58:24;22.10;;;21.07;;
14373;SDS011;7270;49.004;12.066;2023-07-20T09:00:52;184.47;;;175.93;;
14373;SDS011;7270;49.004;12.066;2023-07-20T09:03:19;543.43;;;501.33;;
14373;SDS011;7270;49.004;12.066;2023-07-20T09:05:46;681.27;;;616.20;;
14373;SDS011;7270;49.004;12.066;2023-07-20T09:08:12;656.30;;;591.73;;
14373;SDS011;7270;49.004;12.066;2023-07-20T09:10:39;654.23;;;589.83;;
14373;SDS011;7270;49.004;12.066;2023-07-20T09:13:05;648.53;;;584.20;;
14373;SDS011;7270;49.004;12.066;2023-07-20T09:15:31;629.17;;;565.03;;
14373;SDS011;7270;49.004;12.066;2023-07-20T09:18:00;642.33;;;577.87;;
14373;SDS011;7270;49.004;12.066;2023-07-20T09:20:27;642.40;;;578.10;;
14373;SDS011;7270;49.004;12.066;2023-07-20T09:22:56;531.67;;;492.07;;
14373;SDS011;7270;49.004;12.066;2023-07-20T09:25:22;381.73;;;359.40;;
14373;SDS011;7270;49.004;12.066;2023-07-20T09:27:49;692.03;;;628.20;;
14373;SDS011;7270;49.004;12.066;2023-07-20T09:30:15;88.85;;;84.70;;
14373;SDS011;7270;49.004;12.066;2023-07-20T09:32:43;289.45;;;275.52;;
14373;SDS011;7270;49.004;12.066;2023-07-20T09:35:14;376.08;;;356.20;;
14373;SDS011;7270;49.004;12.066;2023-07-20T09:37:45;515.92;;;483.00;;
14373;SDS011;7270;49.004;12.066;2023-07-20T09:40:14;460.58;;;433.27;;
14373;SDS011;7270;49.004;12.066;2023-07-20T09:42:40;512.90;;;477.23;;
14373;SDS011;7270;49.004;12.066;2023-07-20T09:45:08;506.00;;;469.90;;
14373;SDS011;7270;49.004;12.066;2023-07-20T09:47:35;452.83;;;423.07;;
14373;SDS011;7270;49.004;12.066;2023-07-20T09:50:02;71.63;;;68.40;;
14373;SDS011;7270;49.004;12.066;2023-07-20T09:52:30;62.37;;;59.27;;
14373;SDS011;7270;49.004;12.066;2023-07-20T09:54:57;7.87;;;7.47;;
14373;SDS011;7270;49.004;12.066;2023-07-20T09:57:23;133.40;;;126.38;;
14373;SDS011;7270;49.004;12.066;2023-07-20T09:59:51;72.55;;;69.30;;
14373;SDS011;7270;49.004;12.066;2023-07-20T10:02:19;65.85;;;62.85;;
14373;SDS011;7270;49.004;12.066;2023-07-20T10:04:46;181.60;;;173.65;;
14373;SDS011;7270;49.004;12.066;2023-07-20T10:07:13;398.88;;;374.83;;
14373;SDS011;7270;49.004;12.066;2023-07-20T10:09:41;223.27;;;213.02;;
14373;SDS011;7270;49.004;12.066;2023-07-20T10:12:08;252.00;;;240.68;;
14373;SDS011;7270;49.004;12.066;2023-07-20T10:14:35;413.67;;;391.67;;
14373;SDS011;7270;49.004;12.066;2023-07-20T10:17:04;583.35;;;545.53;;
14373;SDS011;7270;49.004;12.066;2023-07-20T10:19:33;702.90;;;649.30;;
14373;SDS011;7270;49.004;12.066;2023-07-20T10:22:01;636.55;;;591.72;;
14373;SDS011;7270;49.004;12.066;2023-07-20T10:24:29;521.92;;;490.95;;
14373;SDS011;7270;49.004;12.066;2023-07-20T10:26:58;539.05;;;506.17;;
14373;SDS011;7270;49.004;12.066;2023-07-20T10:29:25;603.88;;;564.45;;
14373;SDS011;7270;49.004;12.066;2023-07-20T10:31:52;676.47;;;625.28;;
14373;SDS011;7270;49.004;12.066;2023-07-20T10:34:19;603.58;;;562.15;;
14373;SDS011;7270;49.004;12.066;2023-07-20T10:36:45;651.20;;;604.85;;
14373;SDS011;7270;49.004;12.066;2023-07-20T10:39:23;730.55;;;673.40;;
14373;SDS011;7270;49.004;12.066;2023-07-20T10:41:50;716.53;;;661.75;;
14373;SDS011;7270;49.004;12.066;2023-07-20T10:44:26;666.47;;;617.88;;
14373;SDS011;7270;49.004;12.066;2023-07-20T10:46:58;367.48;;;348.08;;
14373;SDS011;7270;49.004;12.066;2023-07-20T10:49:24;65.03;;;62.05;;
14373;SDS011;7270;49.004;12.066;2023-07-20T10:51:56;16.17;;;15.43;;
14373;SDS011;7270;49.004;12.066;2023-07-20T10:54:35;3.30;;;3.20;;
14373;SDS011;7270;49.004;12.066;2023-07-20T10:57:22;20.15;;;19.25;;
14373;SDS011;7270;49.004;12.066;2023-07-20T10:59:50;13.73;;;13.13;;
14373;SDS011;7270;49.004;12.066;2023-07-20T11:02:17;19.27;;;18.37;;
14373;SDS011;7270;49.004;12.066;2023-07-20T11:04:44;27.00;;;25.73;;
14373;SDS011;7270;49.004;12.066;2023-07-20T11:07:11;3.87;;;3.67;;
14373;SDS011;7270;49.004;12.066;2023-07-20T11:09:41;3.60;;;3.40;;
14373;SDS011;7270;49.004;12.066;2023-07-20T11:12:11;2.10;;;2.00;;
14373;SDS011;7270;49.004;12.066;2023-07-20T11:14:39;2.10;;;2.00;;
14373;SDS011;7270;49.004;12.066;2023-07-20T11:17:11;2.50;;;2.40;;
14373;SDS011;7270;49.004;12.066;2023-07-20T11:19:38;3.83;;;3.63;;
14373;SDS011;7270;49.004;12.066;2023-07-20T11:22:05;2.20;;;2.10;;
14373;SDS011;7270;49.004;12.066;2023-07-20T11:24:32;17.80;;;17.00;;
14373;SDS011;7270;49.004;12.066;2023-07-20T11:26:59;4.33;;;4.13;;
14373;SDS011;7270;49.004;12.066;2023-07-20T11:29:26;3.80;;;3.60;;
14373;SDS011;7270;49.004;12.066;2023-07-20T11:31:52;4.00;;;3.80;;
14373;SDS011;7270;49.004;12.066;2023-07-20T11:34:20;4.27;;;4.07;;
14373;SDS011;7270;49.004;12.066;2023-07-20T11:36:47;4.03;;;3.83;;
14373;SDS011;7270;49.004;12.066;2023-07-20T11:39:14;1.90;;;1.80;;
14373;SDS011;7270;49.004;12.066;2023-07-20T11:41:43;2.13;;;2.03;;
14373;SDS011;7270;49.004;12.066;2023-07-20T11:44:10;2.70;;;2.60;;
14373;SDS011;7270;49.004;12.066;2023-07-20T11:46:38;3.30;;;3.17;;
14373;SDS011;7270;49.004;12.066;2023-07-20T11:49:04;38.97;;;37.15;;
14373;SDS011;7270;49.004;12.066;2023-07-20T11:51:33;118.22;;;113.05;;
14373;SDS011;7270;49.004;12.066;2023-07-20T11:54:00;214.27;;;204.77;;
14373;SDS011;7270;49.004;12.066;2023-07-20T11:56:27;5.60;;;5.35;;
14373;SDS011;7270;49.004;12.066;2023-07-20T11:58:57;41.75;;;39.47;;
14373;SDS011;7270;49.004;12.066;2023-07-20T12:01:24;4.25;;;4.05;;
14373;SDS011;7270;49.004;12.066;2023-07-20T12:03:53;6.55;;;6.25;;
14373;SDS011;7270;49.004;12.066;2023-07-20T12:06:22;8.07;;;7.68;;
14373;SDS011;7270;49.004;12.066;2023-07-20T12:08:50;8.68;;;8.27;;
14373;SDS011;7270;49.004;12.066;2023-07-20T12:11:30;8.50;;;8.10;;
14373;SDS011;7270;49.004;12.066;2023-07-20T12:13:57;44.70;;;42.70;;
14373;SDS011;7270;49.004;12.066;2023-07-20T12:16:26;250.38;;;237.45;;
14373;SDS011;7270;49.004;12.066;2023-07-20T12:18:58;337.13;;;319.02;;
14373;SDS011;7270;49.004;12.066;2023-07-20T12:21:25;63.42;;;60.60;;
14373;SDS011;7270;49.004;12.066;2023-07-20T12:23:52;54.22;;;49.60;;
14373;SDS011;7270;49.004;12.066;2023-07-20T12:26:19;6.75;;;6.45;;
14373;SDS011;7270;49.004;12.066;2023-07-20T12:28:47;5.25;;;5.05;;
14373;SDS011;7270;49.004;12.066;2023-07-20T12:31:14;8.05;;;7.65;;
14373;SDS011;7270;49.004;12.066;2023-07-20T12:33:40;2.20;;;2.10;;
14373;SDS011;7270;49.004;12.066;2023-07-20T12:36:06;2.80;;;2.70;;
14373;SDS011;7270;49.004;12.066;2023-07-20T12:38:33;2.80;;;2.70;;
14373;SDS011;7270;49.004;12.066;2023-07-20T12:41:01;2.50;;;2.40;;
14373;SDS011;7270;49.004;12.066;2023-07-20T12:43:28;2.40;;;2.30;;
14373;SDS011;7270;49.004;12.066;2023-07-20T12:45:54;2.50;;;2.40;;
14373;SDS011;7270;49.004;12.066;2023-07-20T12:48:21;2.50;;;2.40;;
14373;SDS011;7270;49.004;12.066;2023-07-20T12:50:47;2.70;;;2.60;;
14373;SDS011;7270;49.004;12.066;2023-07-20T12:53:13;52.50;;;50.03;;
14373;SDS011;7270;49.004;12.066;2023-07-20T12:55:40;22.93;;;21.87;;
14373;SDS011;7270;49.004;12.066;2023-07-20T12:58:07;50.20;;;47.90;;
14373;SDS011;7270;49.004;12.066;2023-07-20T13:00:34;35.57;;;33.90;;
14373;SDS011;7270;49.004;12.066;2023-07-20T13:03:01;2.20;;;2.10;;
14373;SDS011;7270;49.004;12.066;2023-07-20T13:05:29;2.00;;;1.90;;
14373;SDS011;7270;49.004;12.066;2023-07-20T13:07:56;2.00;;;1.90;;
14373;SDS011;7270;49.004;12.066;2023-07-20T13:10:23;2.00;;;1.90;;
14373;SDS011;7270;49.004;12.066;2023-07-20T13:12:49;1.90;;;1.80;;
14373;SDS011;7270;49.004;12.066;2023-07-20T13:15:17;1.90;;;1.80;;
14373;SDS011;7270;49.004;12.066;2023-07-20T13:17:43;1.90;;;1.80;;
14373;SDS011;7270;49.004;12.066;2023-07-20T13:20:11;1.90;;;1.80;;
14373;SDS011;7270;49.004;12.066;2023-07-20T13:22:37;1.90;;;1.80;;
14373;SDS011;7270;49.004;12.066;2023-07-20T13:25:04;2.00;;;1.90;;
14373;SDS011;7270;49.004;12.066;2023-07-20T13:27:31;1.90;;;1.80;;
14373;SDS011;7270;49.004;12.066;2023-07-20T13:29:57;1.83;;;1.73;;
14373;SDS011;7270;49.004;12.066;2023-07-20T13:32:26;1.90;;;1.80;;
14373;SDS011;7270;49.004;12.066;2023-07-20T13:34:52;1.90;;;1.80;;
14373;SDS011;7270;49.004;12.066;2023-07-20T13:37:19;1.80;;;1.70;;
14373;SDS011;7270;49.004;12.066;2023-07-20T13:39:45;2.10;;;2.00;;
14373;SDS011;7270;49.004;12.066;2023-07-20T13:42:11;2.40;;;2.30;;
14373;SDS011;7270;49.004;12.066;2023-07-20T13:44:38;2.30;;;2.20;;
14373;SDS011;7270;49.004;12.066;2023-07-20T13:47:04;2.00;;;1.90;;
14373;SDS011;7270;49.004;12.066;2023-07-20T13:49:32;1.77;;;1.67;;
14373;SDS011;7270;49.004;12.066;2023-07-20T13:51:59;1.80;;;1.70;;
14373;SDS011;7270;49.004;12.066;2023-07-20T13:54:25;1.70;;;1.60;;
14373;SDS011;7270;49.004;12.066;2023-07-20T13:56:52;1.70;;;1.60;;
14373;SDS011;7270;49.004;12.066;2023-07-20T13:59:18;1.80;;;1.70;;
14373;SDS011;7270;49.004;12.066;2023-07-20T14:01:44;1.80;;;1.70;;
14373;SDS011;7270;49.004;12.066;2023-07-20T14:04:11;1.80;;;1.70;;
14373;SDS011;7270;49.004;12.066;2023-07-20T14:06:39;1.70;;;1.60;;
14373;SDS011;7270;49.004;12.066;2023-07-20T14:09:05;1.80;;;1.70;;
14373;SDS011;7270;49.004;12.066;2023-07-20T14:11:31;1.80;;;1.70;;
14373;SDS011;7270;49.004;12.066;2023-07-20T14:13:57;1.80;;;1.70;;
14373;SDS011;7270;49.004;12.066;2023-07-20T14:16:24;1.70;;;1.60;;
14373;SDS011;7270;49.004;12.066;2023-07-20T14:18:51;1.70;;;1.60;;
14373;SDS011;7270;49.004;12.066;2023-07-20T14:21:17;1.70;;;1.60;;
14373;SDS011;7270;49.004;12.066;2023-07-20T14:23:46;1.73;;;1.63;;
14373;SDS011;7270;49.004;12.066;2023-07-20T14:26:12;1.80;;;1.70;;
14373;SDS011;7270;49.004;12.066;2023-07-20T14:28:39;1.80;;;1.70;;
14373;SDS011;7270;49.004;12.066;2023-07-20T14:31:05;1.80;;;1.70;;
14373;SDS011;7270;49.004;12.066;2023-07-20T14:33:32;1.80;;;1.70;;
14373;SDS011;7270;49.004;12.066;2023-07-20T14:35:58;1.80;;;1.70;;
14373;SDS011;7270;49.004;12.066;2023-07-20T14:38:26;1.90;;;1.80;;
14373;SDS011;7270;49.004;12.066;2023-07-20T14:40:54;1.90;;;1.80;;
14373;SDS011;7270;49.004;12.066;2023-07-20T14:43:20;1.90;;;1.80;;